Etusivu
METAR-TAF:

METAR-TAF

Lentoasemat :

Ivalon lentoasema

Ivalo, Suomi

Leveyspiiri: 68-37N, Pituuspiiri: 027-25E, korkeus merenpinnasta: 147 m

Tämänhetkinen sää

Tämä raportti tehtiin 36 minuuttia sitten, kello 00.20 UTC
Tuuli 5 kn lännestä/lounaasta
Lämpötila -1°C
Kosteus 100%
Ilmanpaine 999 hPa
Näkyvyys 10 km tai enemmän
ei pilviä alle 1500 m:ssä eikä cumulonimbus-pilviä

METAR: EFIV 190020Z AUTO 25005KT CAVOK M01/M01 Q0999

Aika: 03:56 (00:56 UTC)

Sääennuste

Tämä raportti tehtiin 19 tuntia ja 23 minuuttia sitten, kello 05.33 UTC
Ennuste voimassa 18. päivästä klo 06 UTC - 18. päivään klo 10 UTC
Tuuli 8 kn lännestä/lounaasta
Näkyvyys 10 km tai enemmän
Hajonneita pilviä 500 ft:n korkeudessa
Ajoittain
18. päivästä klo 06 UTC - 18. päivään klo 10 UTC
Näkyvyys: 4000 m
Hajonneita pilviä 200 ft:n korkeudessa
utua

TAF: EFIV 180533Z 1806/1810 24008KT 9999 BKN005 TEMPO 1806/1810 4000 BR BKN002

Säähavainnot ja -ennusteet yli 4000 lentoasemalta (METAR- ja TAF-raportit).

Käytössä olevat sääasemat on merkitty karttaan keltaisilla ja punaisilla pisteillä.

Aseta hiiri pisteen päälle nähdäksesi sääaseman nimen.

Klikkaa sitten nähdäksesi säähavainnot ja -ennusteet.

Kartan vaihtaminen: klikkaa mustalla rastilla varustettuja vihreitä pisteitä, niin voit zoomata sisään; viivalla varustettua vihreää pistettä, niin voit zoomata ulos tai vihreitä nuolia, niin pääset viereisille kartoille.


METAR-TAF: